Time;durP1;ratioP1;P1;durP2;ratioP2;P2;SDS_P1;SDS_P2;PMS_P1;PMS_P2;Temp;Humidity;BMP_temperature;BMP_pressure;BME280_temperature;BME280_humidity;BME280_pressure;Samples;Min_cycle;Max_cycle;Signal;HPM_P1;HPM_P2
2021/10/12 00:02:14;;;;;;;0.30;0.20;;;9.60;99.90;;;;;;4958734;29;20618;-64
2021/10/12 00:04:40;;;;;;;2.40;2.30;;;9.60;99.90;;;;;;4959346;29;20194;-64
2021/10/12 00:07:06;;;;;;;0.30;0.20;;;9.60;99.90;;;;;;4958558;29;20576;-66
2021/10/12 00:09:32;;;;;;;0.30;0.20;;;9.70;99.90;;;;;;4958487;29;20829;-66
2021/10/12 00:11:58;;;;;;;0.30;0.20;;;9.70;99.90;;;;;;4959324;29;20173;-65
2021/10/12 00:14:23;;;;;;;0.20;0.10;;;9.80;99.90;;;;;;4959094;29;20184;-65
2021/10/12 00:16:49;;;;;;;0.30;0.20;;;9.80;99.90;;;;;;4958748;29;20247;-66
2021/10/12 00:19:15;;;;;;;0.30;0.20;;;9.90;99.90;;;;;;4958504;29;20187;-66
2021/10/12 00:21:41;;;;;;;0.50;0.50;;;9.90;99.90;;;;;;4959350;28;20246;-65
2021/10/12 00:24:09;;;;;;;0.50;0.47;;;9.80;99.90;;;;;;4958669;29;20939;-65
2021/10/12 00:26:34;;;;;;;0.20;0.20;;;9.80;99.90;;;;;;4957610;29;21014;-66
2021/10/12 00:29:00;;;;;;;0.20;0.13;;;9.80;99.90;;;;;;4958317;29;20195;-66
2021/10/12 00:31:25;;;;;;;0.20;0.20;;;9.90;99.90;;;;;;4958425;29;20492;-64
2021/10/12 00:33:51;;;;;;;0.20;0.10;;;9.90;99.90;;;;;;4958387;29;20188;-64
2021/10/12 00:36:16;;;;;;;0.30;0.20;;;10.00;99.90;;;;;;4958402;29;20192;-66
2021/10/12 00:38:42;;;;;;;0.20;0.20;;;9.90;99.90;;;;;;4958138;29;20267;-66
2021/10/12 00:41:08;;;;;;;0.30;0.20;;;9.90;99.90;;;;;;4958209;29;20335;-64
2021/10/12 00:43:34;;;;;;;0.60;0.38;;;9.90;99.90;;;;;;4958570;29;20558;-65
2021/10/12 00:46:01;;;;;;;0.30;0.30;;;9.90;99.90;;;;;;4958586;29;20648;-64
2021/10/12 00:48:27;;;;;;;0.30;0.20;;;9.70;99.90;;;;;;4958328;29;20199;-64
2021/10/12 00:50:52;;;;;;;0.30;0.30;;;9.70;99.90;;;;;;4958086;29;20525;-66
2021/10/12 00:53:18;;;;;;;0.30;0.20;;;9.70;99.90;;;;;;4957160;28;20192;-65
2021/10/12 00:55:44;;;;;;;0.20;0.10;;;9.80;99.90;;;;;;4957751;29;20195;-64
2021/10/12 00:58:10;;;;;;;0.20;0.20;;;9.80;99.90;;;;;;4957971;29;20278;-64
2021/10/12 01:00:37;;;;;;;0.30;0.25;;;9.80;99.90;;;;;;4957912;29;20199;-64
2021/10/12 01:03:03;;;;;;;0.20;0.20;;;9.80;99.90;;;;;;4957693;29;20212;-64
2021/10/12 01:05:29;;;;;;;0.30;0.20;;;9.80;99.90;;;;;;4957928;29;20172;-65
2021/10/12 01:07:54;;;;;;;0.30;0.20;;;10.00;99.90;;;;;;4957541;29;20525;-65
2021/10/12 01:10:20;;;;;;;0.20;0.20;;;10.00;99.90;;;;;;4957734;29;20614;-66
2021/10/12 01:12:46;;;;;;;0.30;0.20;;;9.80;99.90;;;;;;4957748;29;20203;-66
2021/10/12 01:15:12;;;;;;;0.30;0.20;;;9.80;99.90;;;;;;4957741;29;20199;-64
2021/10/12 01:17:38;;;;;;;22.53;1.90;;;9.80;99.90;;;;;;4956700;29;20184;-65
2021/10/12 01:20:10;;;;;;;0.30;0.30;;;9.80;99.90;;;;;;4957318;29;20250;-63
2021/10/12 01:22:39;;;;;;;1.30;0.65;;;9.60;99.90;;;;;;4957219;29;20194;-63
2021/10/12 01:25:05;;;;;;;0.20;0.20;;;9.60;99.90;;;;;;4957402;29;20173;-63
2021/10/12 01:27:31;;;;;;;0.20;0.20;;;9.60;99.90;;;;;;4957292;29;20206;-64
2021/10/12 01:29:56;;;;;;;0.30;0.30;;;9.60;99.90;;;;;;4956818;29;20187;-65
2021/10/12 01:32:22;;;;;;;0.20;0.20;;;9.60;99.90;;;;;;4957805;29;20560;-64
2021/10/12 01:34:47;;;;;;;0.20;0.20;;;9.70;99.90;;;;;;4957252;29;20189;-65
2021/10/12 01:37:13;;;;;;;0.20;0.20;;;9.80;99.90;;;;;;4956611;29;20652;-65
2021/10/12 01:39:38;;;;;;;0.63;0.43;;;9.80;99.90;;;;;;4956910;29;20188;-65
2021/10/12 01:42:05;;;;;;;0.23;0.17;;;9.80;99.90;;;;;;4957446;29;20187;-65
2021/10/12 01:44:30;;;;;;;0.20;0.15;;;9.80;99.90;;;;;;4957062;29;20291;-65
2021/10/12 01:46:56;;;;;;;0.30;0.20;;;9.80;99.90;;;;;;4957021;29;20586;-65
2021/10/12 01:49:22;;;;;;;0.97;0.97;;;9.80;99.90;;;;;;4956428;29;20685;-65
2021/10/12 01:51:48;;;;;;;0.20;0.20;;;9.80;99.90;;;;;;4956907;29;20243;-65
2021/10/12 01:54:20;;;;;;;0.30;0.30;;;9.80;99.90;;;;;;4957219;29;20179;-64
2021/10/12 01:56:50;;;;;;;0.20;0.20;;;9.70;99.90;;;;;;4957086;29;20668;-65
2021/10/12 01:59:16;;;;;;;0.20;0.20;;;9.80;99.90;;;;;;4956582;29;20562;-63
2021/10/12 02:01:42;;;;;;;0.20;0.20;;;9.70;99.90;;;;;;4956722;29;20180;-63
2021/10/12 02:04:08;;;;;;;0.20;0.20;;;9.70;99.90;;;;;;4956684;29;20200;-66
2021/10/12 02:06:34;;;;;;;0.27;0.20;;;9.90;99.90;;;;;;4956374;28;20187;-65
2021/10/12 02:09:00;;;;;;;0.20;0.20;;;10.10;99.90;;;;;;4956398;29;20234;-64
2021/10/12 02:11:26;;;;;;;0.33;0.33;;;10.10;99.90;;;;;;4956617;29;20263;-65
2021/10/12 02:13:51;;;;;;;0.30;0.20;;;10.10;99.90;;;;;;4956526;29;20764;-65
2021/10/12 02:16:17;;;;;;;0.20;0.20;;;10.20;99.90;;;;;;4956769;29;20435;-66
2021/10/12 02:18:42;;;;;;;0.20;0.20;;;10.10;99.90;;;;;;4956134;29;20291;-65
2021/10/12 02:21:08;;;;;;;0.30;0.20;;;10.10;99.90;;;;;;4956596;29;20266;-65
2021/10/12 02:23:33;;;;;;;0.20;0.20;;;10.10;99.90;;;;;;4956605;29;20250;-65
2021/10/12 02:25:59;;;;;;;0.30;0.20;;;9.90;99.90;;;;;;4956403;29;20180;-65
2021/10/12 02:28:25;;;;;;;0.20;0.10;;;9.80;99.90;;;;;;4955936;29;20200;-64
2021/10/12 02:30:50;;;;;;;0.73;0.73;;;9.80;99.90;;;;;;4956209;29;20678;-65
2021/10/12 02:33:17;;;;;;;0.20;0.20;;;9.70;99.90;;;;;;4956015;28;20244;-64
2021/10/12 02:35:42;;;;;;;0.30;0.20;;;9.70;99.90;;;;;;4955386;29;20681;-64
2021/10/12 02:38:08;;;;;;;0.20;0.20;;;9.60;99.90;;;;;;4956063;29;20513;-65
2021/10/12 02:40:34;;;;;;;0.30;0.20;;;9.60;99.90;;;;;;4956173;29;20191;-64
2021/10/12 02:42:59;;;;;;;0.30;0.20;;;9.50;99.90;;;;;;4956189;29;20219;-64
2021/10/12 02:45:25;;;;;;;0.20;0.20;;;9.50;99.90;;;;;;4956155;28;20187;-64
2021/10/12 02:47:50;;;;;;;0.20;0.20;;;9.40;99.90;;;;;;4956043;29;20498;-64
2021/10/12 02:50:16;;;;;;;0.20;0.20;;;9.40;99.90;;;;;;4955775;29;20180;-65
2021/10/12 02:52:42;;;;;;;0.30;0.23;;;9.40;99.90;;;;;;4954931;29;20183;-64
2021/10/12 02:55:08;;;;;;;0.20;0.20;;;9.30;99.90;;;;;;4955942;29;20180;-64
2021/10/12 02:57:34;;;;;;;0.30;0.30;;;9.30;99.90;;;;;;4955916;29;20195;-65
2021/10/12 03:00:02;;;;;;;0.30;0.30;;;9.40;99.90;;;;;;4955744;29;20179;-64
2021/10/12 03:02:28;;;;;;;0.20;0.20;;;9.40;99.90;;;;;;4956013;29;20263;-64
2021/10/12 03:04:54;;;;;;;0.20;0.20;;;9.40;99.90;;;;;;4955927;29;20577;-64
2021/10/12 03:07:20;;;;;;;0.20;0.20;;;9.40;99.90;;;;;;4954893;29;20689;-64
2021/10/12 03:09:45;;;;;;;0.20;0.20;;;9.50;99.90;;;;;;4955658;29;20184;-64
2021/10/12 03:12:11;;;;;;;0.20;0.17;;;9.60;99.90;;;;;;4955760;29;20172;-64
2021/10/12 03:14:38;;;;;;;0.20;0.20;;;9.50;99.90;;;;;;4956136;29;20524;-65
2021/10/12 03:17:03;;;;;;;0.20;0.20;;;9.50;99.90;;;;;;4955006;28;20198;-64
2021/10/12 03:19:29;;;;;;;0.20;0.20;;;9.60;99.90;;;;;;4954561;29;20192;-64
2021/10/12 03:22:00;;;;;;;0.50;0.30;;;9.60;99.90;;;;;;4955679;29;20180;-64
2021/10/12 03:24:26;;;;;;;0.45;0.45;;;9.60;99.90;;;;;;4955930;29;20269;-64
2021/10/12 03:26:51;;;;;;;0.20;0.20;;;9.60;99.90;;;;;;4963334;29;20182;-65
2021/10/12 03:29:17;;;;;;;0.30;0.20;;;9.80;99.90;;;;;;4961577;29;20203;-65
2021/10/12 03:31:42;;;;;;;1.07;0.30;;;9.70;99.90;;;;;;4964333;29;20207;-64
2021/10/12 03:34:08;;;;;;;0.20;0.17;;;9.70;99.90;;;;;;4965434;29;20199;-64
2021/10/12 03:36:33;;;;;;;0.20;0.20;;;9.60;99.90;;;;;;4956258;29;20184;-63
2021/10/12 03:38:59;;;;;;;0.30;0.30;;;9.70;99.90;;;;;;4955891;29;20184;-63
2021/10/12 03:41:25;;;;;;;0.20;0.20;;;9.70;99.90;;;;;;4956002;29;20186;-63
2021/10/12 03:43:51;;;;;;;0.20;0.20;;;9.70;99.90;;;;;;4955479;29;20463;-63
2021/10/12 03:46:16;;;;;;;0.30;0.20;;;9.70;99.90;;;;;;4955427;29;20192;-63
2021/10/12 03:48:42;;;;;;;0.20;0.10;;;9.70;99.90;;;;;;4955287;29;20239;-62
2021/10/12 03:51:07;;;;;;;0.20;0.20;;;9.70;99.90;;;;;;4955937;29;20190;-63
2021/10/12 03:53:37;;;;;;;0.20;0.20;;;9.80;99.90;;;;;;4955185;29;20183;-63
2021/10/12 03:56:04;;;;;;;0.20;0.20;;;9.70;99.90;;;;;;4954429;29;20263;-64
2021/10/12 03:58:30;;;;;;;0.20;0.20;;;9.70;99.90;;;;;;4954929;29;20180;-64
2021/10/12 04:00:55;;;;;;;0.30;0.20;;;9.70;99.90;;;;;;4955204;29;20187;-64
2021/10/12 04:03:21;;;;;;;0.30;0.20;;;9.70;99.90;;;;;;4954993;29;20280;-63
2021/10/12 04:05:47;;;;;;;0.20;0.20;;;9.60;99.90;;;;;;4955001;28;20184;-65
2021/10/12 04:08:13;;;;;;;0.20;0.20;;;9.50;99.90;;;;;;4954967;29;20184;-66
2021/10/12 04:10:39;;;;;;;1.15;1.05;;;9.50;99.90;;;;;;4955169;29;20281;-66
2021/10/12 04:13:05;;;;;;;0.20;0.17;;;9.50;99.90;;;;;;4954887;29;20188;-66
2021/10/12 04:15:31;;;;;;;0.20;0.20;;;9.50;99.90;;;;;;4955033;29;20180;-66
2021/10/12 04:17:57;;;;;;;0.30;0.30;;;9.50;99.90;;;;;;4957164;29;20775;-65
2021/10/12 04:20:27;;;;;;;0.20;0.17;;;9.50;99.90;;;;;;4958395;29;20194;-65
2021/10/12 04:22:55;;;;;;;0.30;0.30;;;9.40;99.90;;;;;;4955553;29;20207;-64
2021/10/12 04:25:21;;;;;;;0.20;0.20;;;9.40;99.90;;;;;;4954922;29;20176;-64
2021/10/12 04:27:47;;;;;;;0.50;0.50;;;9.40;99.90;;;;;;4955152;28;20210;-64
2021/10/12 04:30:13;;;;;;;0.30;0.20;;;9.40;99.90;;;;;;4957291;29;20267;-66
2021/10/12 04:32:39;;;;;;;0.20;0.20;;;9.30;99.90;;;;;;4957461;29;20462;-66
2021/10/12 04:35:05;;;;;;;0.20;0.20;;;9.40;99.90;;;;;;4958384;29;20434;-66
2021/10/12 04:37:30;;;;;;;0.20;0.20;;;9.30;99.90;;;;;;4958279;29;20653;-66
2021/10/12 04:39:56;;;;;;;0.30;0.20;;;9.40;99.90;;;;;;4957108;29;20215;-66
2021/10/12 04:42:22;;;;;;;0.20;0.20;;;9.40;99.90;;;;;;4958194;29;20577;-66
2021/10/12 04:44:49;;;;;;;0.20;0.13;;;9.30;99.90;;;;;;4958129;29;20223;-66
2021/10/12 04:47:16;;;;;;;0.20;0.10;;;9.30;99.90;;;;;;4958322;29;20217;-66
2021/10/12 04:49:42;;;;;;;0.45;0.45;;;9.20;99.90;;;;;;4956747;29;20257;-66
2021/10/12 04:52:07;;;;;;;0.20;0.20;;;9.20;99.90;;;;;;4958023;29;20840;-66
2021/10/12 04:54:33;;;;;;;0.20;0.20;;;9.20;99.90;;;;;;4957976;29;20282;-66
2021/10/12 04:56:59;;;;;;;0.20;0.20;;;9.20;99.90;;;;;;4958271;29;20222;-66
2021/10/12 04:59:24;;;;;;;0.20;0.20;;;9.20;99.90;;;;;;4957782;29;20210;-65
2021/10/12 05:01:50;;;;;;;0.20;0.20;;;9.30;99.90;;;;;;4957839;29;20188;-66
2021/10/12 05:04:15;;;;;;;0.40;0.37;;;9.30;99.90;;;;;;4957761;29;20219;-67
2021/10/12 05:06:41;;;;;;;0.30;0.20;;;9.20;99.90;;;;;;4957819;29;20187;-67
2021/10/12 05:09:06;;;;;;;1.90;0.70;;;9.20;99.90;;;;;;4957517;29;20548;-67
2021/10/12 05:11:32;;;;;;;0.20;0.17;;;9.20;99.90;;;;;;4957843;29;20187;-66
2021/10/12 05:13:58;;;;;;;0.40;0.40;;;9.20;99.90;;;;;;4957637;29;20639;-66
2021/10/12 05:16:24;;;;;;;0.52;0.52;;;9.20;99.90;;;;;;4957559;29;20191;-65
2021/10/12 05:18:54;;;;;;;0.20;0.20;;;9.10;99.90;;;;;;4957379;29;20542;-65
2021/10/12 05:21:19;;;;;;;0.20;0.20;;;9.20;99.90;;;;;;4957595;29;20186;-65
2021/10/12 05:23:45;;;;;;;0.20;0.20;;;9.20;99.90;;;;;;4957507;29;20211;-66
2021/10/12 05:26:11;;;;;;;0.40;0.40;;;9.10;99.90;;;;;;4957324;29;20175;-65
2021/10/12 05:28:37;;;;;;;0.20;0.20;;;9.10;99.90;;;;;;4957209;29;20204;-65
2021/10/12 05:31:03;;;;;;;0.20;0.20;;;9.10;99.90;;;;;;4957343;29;20180;-66
2021/10/12 05:33:29;;;;;;;0.37;0.33;;;9.10;99.90;;;;;;4957637;29;20214;-66
2021/10/12 05:35:54;;;;;;;0.20;0.20;;;9.10;99.90;;;;;;4956406;29;20213;-64
2021/10/12 05:38:21;;;;;;;0.20;0.20;;;9.10;99.90;;;;;;4957222;29;20439;-64
2021/10/12 05:40:48;;;;;;;0.20;0.20;;;9.10;99.90;;;;;;4956645;28;20196;-64
2021/10/12 05:43:14;;;;;;;0.20;0.20;;;9.10;99.90;;;;;;4957145;29;20661;-64
2021/10/12 05:45:40;;;;;;;3.33;0.88;;;9.10;99.90;;;;;;4957131;29;20180;-64
2021/10/12 05:48:07;;;;;;;1.07;0.70;;;9.10;99.90;;;;;;4957085;29;20179;-64
2021/10/12 05:50:34;;;;;;;0.20;0.20;;;9.20;99.90;;;;;;4957032;29;20180;-64
2021/10/12 05:55:53;;;;;;;0.20;0.17;;;9.30;99.90;;;;;;4956735;29;20327;-65
2021/10/12 05:58:25;;;;;;;0.20;0.20;;;9.20;99.90;;;;;;4956093;29;20269;-65
2021/10/12 06:00:51;;;;;;;0.20;0.10;;;9.20;99.90;;;;;;4956976;29;20184;-65
2021/10/12 06:03:16;;;;;;;1.23;0.87;;;9.10;99.90;;;;;;4956604;29;20816;-65
2021/10/12 06:05:42;;;;;;;0.20;0.20;;;9.20;99.90;;;;;;4956860;29;20176;-64
2021/10/12 06:08:07;;;;;;;0.40;0.40;;;9.40;99.90;;;;;;4956337;29;20334;-64
2021/10/12 06:10:35;;;;;;;0.20;0.20;;;9.40;99.90;;;;;;4956664;29;20195;-64
2021/10/12 06:13:07;;;;;;;0.20;0.20;;;9.60;99.90;;;;;;4956467;29;20180;-64
2021/10/12 06:15:33;;;;;;;0.20;0.20;;;9.70;99.90;;;;;;4956505;29;20180;-65
2021/10/12 06:17:59;;;;;;;0.20;0.20;;;9.70;99.90;;;;;;4956081;29;20266;-64
2021/10/12 06:20:24;;;;;;;0.20;0.10;;;9.80;99.90;;;;;;4955305;29;20198;-64
2021/10/12 06:22:50;;;;;;;0.20;0.20;;;9.80;99.90;;;;;;4956611;29;20937;-64
2021/10/12 06:25:15;;;;;;;0.20;0.10;;;9.80;99.90;;;;;;4955907;29;20207;-64
2021/10/12 06:27:43;;;;;;;0.20;0.20;;;9.90;99.90;;;;;;4955966;29;20684;-64
2021/10/12 06:30:09;;;;;;;0.20;0.20;;;9.70;99.90;;;;;;4955677;29;20180;-65
2021/10/12 06:32:34;;;;;;;0.20;0.20;;;9.70;99.90;;;;;;4956878;29;20564;-66
2021/10/12 06:35:00;;;;;;;0.20;0.20;;;9.60;99.90;;;;;;4955926;29;20450;-64
2021/10/12 06:37:25;;;;;;;0.20;0.20;;;9.50;99.90;;;;;;4956058;29;20252;-64
2021/10/12 06:39:51;;;;;;;0.20;0.20;;;9.40;99.90;;;;;;4955565;29;20188;-64
2021/10/12 06:42:17;;;;;;;0.20;0.20;;;9.50;99.90;;;;;;4956205;29;20175;-64
2021/10/12 06:44:42;;;;;;;0.30;0.30;;;9.60;99.90;;;;;;4956018;29;20203;-64
2021/10/12 06:47:08;;;;;;;0.20;0.20;;;9.60;99.90;;;;;;4955978;29;20184;-64
2021/10/12 06:49:33;;;;;;;0.20;0.20;;;9.70;99.90;;;;;;4955583;29;20207;-63
2021/10/12 06:52:36;;;;;;;;;;;;;;;;;;;;;
2021/10/12 06:55:36;;;;;;;;;;;;;;;;;;;;;
2021/10/12 06:58:46;;;;;;;;;;;;;;;;;;;;;
2021/10/12 07:01:11;;;;;;;0.20;0.20;;;9.50;99.90;;;;;;4955738;29;20280;-65
2021/10/12 07:03:37;;;;;;;0.20;0.20;;;9.60;99.90;;;;;;4955948;29;20306;-64
2021/10/12 07:06:03;;;;;;;0.30;0.20;;;9.60;99.90;;;;;;4956287;29;20184;-65
2021/10/12 07:08:28;;;;;;;0.50;0.40;;;9.70;99.90;;;;;;4954409;29;20176;-64
2021/10/12 07:10:55;;;;;;;0.20;0.10;;;10.00;99.90;;;;;;4955565;29;20189;-66
2021/10/12 07:13:28;;;;;;;0.22;0.20;;;10.20;99.90;;;;;;4954740;29;20188;-65
2021/10/12 07:15:55;;;;;;;0.20;0.20;;;10.10;99.90;;;;;;4955744;29;20188;-65
2021/10/12 07:18:21;;;;;;;0.40;0.25;;;10.00;99.90;;;;;;4955546;29;20243;-65
2021/10/12 07:20:46;;;;;;;0.20;0.20;;;10.00;99.90;;;;;;4955639;29;20183;-64
2021/10/12 07:23:12;;;;;;;0.20;0.20;;;9.90;99.90;;;;;;4954463;29;20712;-64
2021/10/12 07:25:37;;;;;;;0.30;0.30;;;9.90;99.90;;;;;;4955431;29;20622;-64
2021/10/12 07:28:03;;;;;;;0.43;0.43;;;9.90;99.90;;;;;;4955303;29;20633;-63
2021/10/12 07:30:28;;;;;;;0.20;0.20;;;9.90;99.90;;;;;;4956684;29;20207;-64
2021/10/12 07:32:54;;;;;;;1.13;0.40;;;9.90;99.90;;;;;;4956145;29;20239;-64
2021/10/12 07:35:19;;;;;;;3.13;0.60;;;9.90;99.90;;;;;;4955748;29;20188;-64
2021/10/12 07:37:45;;;;;;;0.93;0.90;;;10.00;99.90;;;;;;4955234;29;20202;-63
2021/10/12 07:40:12;;;;;;;0.30;0.20;;;10.00;99.90;;;;;;4954986;29;20270;-63
2021/10/12 07:42:37;;;;;;;0.25;0.20;;;9.90;99.90;;;;;;4955416;29;20188;-63
2021/10/12 07:45:03;;;;;;;0.30;0.30;;;10.10;99.90;;;;;;4955278;29;20574;-64
2021/10/12 07:47:29;;;;;;;0.50;0.50;;;10.00;99.90;;;;;;4955317;29;20439;-63
2021/10/12 07:49:55;;;;;;;0.20;0.20;;;10.10;99.90;;;;;;4953998;29;20522;-63
2021/10/12 07:52:20;;;;;;;0.20;0.20;;;10.10;99.90;;;;;;4955107;29;20514;-63
2021/10/12 07:54:51;;;;;;;0.20;0.20;;;10.20;99.90;;;;;;4955063;29;20648;-66
2021/10/12 07:57:18;;;;;;;0.20;0.10;;;10.30;99.90;;;;;;4955245;29;20369;-63
2021/10/12 07:59:45;;;;;;;0.50;0.50;;;10.40;99.90;;;;;;4954969;29;20333;-64
2021/10/12 08:02:12;;;;;;;0.30;0.20;;;10.30;99.90;;;;;;4955331;28;20235;-64
2021/10/12 08:04:41;;;;;;;0.30;0.20;;;10.60;99.90;;;;;;4958438;29;20300;-64
2021/10/12 08:07:07;;;;;;;0.20;0.20;;;10.50;99.90;;;;;;4958268;29;20210;-64
2021/10/12 08:09:34;;;;;;;0.20;0.10;;;10.60;99.90;;;;;;4959645;29;20243;-64
2021/10/12 08:12:00;;;;;;;0.22;0.20;;;10.50;99.90;;;;;;4959632;29;20550;-64
2021/10/12 08:14:26;;;;;;;0.68;0.68;;;10.90;99.90;;;;;;4959534;29;20200;-64
2021/10/12 08:16:52;;;;;;;0.20;0.10;;;10.70;99.90;;;;;;4959213;29;20183;-64
2021/10/12 08:19:18;;;;;;;0.30;0.20;;;10.60;99.90;;;;;;4958915;29;20184;-64
2021/10/12 08:21:43;;;;;;;0.30;0.27;;;10.70;99.90;;;;;;4958882;28;20250;-64
2021/10/12 08:24:11;;;;;;;0.30;0.20;;;10.80;87.80;;;;;;4958503;29;20235;-65
2021/10/12 08:26:38;;;;;;;0.30;0.10;;;10.80;99.90;;;;;;4958618;29;20518;-64
2021/10/12 08:29:04;;;;;;;0.30;0.20;;;10.90;40.70;;;;;;4958092;28;20560;-64
2021/10/12 08:31:29;;;;;;;0.30;0.20;;;10.60;1.00;;;;;;4958396;29;20234;-63
2021/10/12 08:33:55;;;;;;;0.40;0.40;;;10.50;1.00;;;;;;4958551;29;20184;-63
2021/10/12 08:36:20;;;;;;;0.30;0.20;;;10.40;1.00;;;;;;4958083;29;20180;-62
2021/10/12 08:38:46;;;;;;;0.97;0.77;;;10.20;1.00;;;;;;4957823;29;20637;-65
2021/10/12 08:41:15;;;;;;;1.03;1.03;;;10.40;1.00;;;;;;4958178;29;20522;-65
2021/10/12 08:43:40;;;;;;;0.30;0.20;;;10.50;1.00;;;;;;4957836;29;20585;-65
2021/10/12 08:46:06;;;;;;;0.30;0.20;;;10.70;1.00;;;;;;4957737;29;20173;-65
2021/10/12 08:48:35;;;;;;;0.30;0.20;;;10.50;99.90;;;;;;4957722;29;20263;-65
2021/10/12 08:51:04;;;;;;;0.32;0.25;;;10.60;1.00;;;;;;4957863;29;20180;-66
2021/10/12 08:53:30;;;;;;;0.30;0.17;;;10.70;99.90;;;;;;4957993;29;20536;-66
2021/10/12 08:55:58;;;;;;;0.30;0.20;;;10.70;99.90;;;;;;4958009;29;20633;-66
2021/10/12 08:58:24;;;;;;;0.30;0.10;;;10.90;1.00;;;;;;4957633;29;20183;-66
2021/10/12 09:01:06;;;;;;;1.85;1.33;;;11.00;1.00;;;;;;4956839;29;20535;-66
2021/10/12 09:03:45;;;;;;;0.30;0.20;;;10.80;1.00;;;;;;4957772;29;20538;-66
2021/10/12 09:06:11;;;;;;;0.30;0.20;;;10.80;1.00;;;;;;4957650;29;20231;-66
2021/10/12 09:08:39;;;;;;;0.60;0.50;;;10.90;99.90;;;;;;4956324;29;20180;-66
2021/10/12 09:11:19;;;;;;;0.30;0.20;;;11.10;99.90;;;;;;4957483;29;20184;-66
2021/10/12 09:13:47;;;;;;;0.40;0.30;;;11.20;99.90;;;;;;4957475;28;20186;-66
2021/10/12 09:16:15;;;;;;;0.50;0.20;;;11.30;36.60;;;;;;4956520;29;20250;-66
2021/10/12 09:18:46;;;;;;;0.30;0.20;;;11.10;1.00;;;;;;4957385;29;20183;-66
2021/10/12 09:21:25;;;;;;;0.30;0.20;;;11.20;1.00;;;;;;4957550;29;20176;-66
2021/10/12 09:23:59;;;;;;;0.40;0.30;;;11.30;1.00;;;;;;4956481;29;20243;-66
2021/10/12 09:26:27;;;;;;;0.30;0.20;;;11.30;1.00;;;;;;4957363;29;20629;-66
2021/10/12 09:29:05;;;;;;;0.30;0.20;;;11.50;99.90;;;;;;4957124;29;20641;-67
2021/10/12 09:31:34;;;;;;;0.30;0.20;;;11.50;1.00;;;;;;4956291;29;20267;-67
2021/10/12 09:34:04;;;;;;;0.30;0.20;;;11.60;78.70;;;;;;4957240;29;20220;-66
2021/10/12 09:36:35;;;;;;;0.30;0.10;;;11.50;1.00;;;;;;4957331;29;20535;-65
2021/10/12 09:39:02;;;;;;;0.30;0.20;;;11.50;1.00;;;;;;4956884;29;20216;-64
2021/10/12 09:41:28;;;;;;;0.30;0.20;;;11.40;1.00;;;;;;4957207;29;20198;-64
2021/10/12 09:44:17;;;;;;;0.30;0.20;;;11.30;1.00;;;;;;4955981;29;20298;-64
2021/10/12 09:46:48;;;;;;;1.15;0.30;;;11.70;1.00;;;;;;4955878;29;20184;-64
2021/10/12 09:49:25;;;;;;;1.00;0.60;;;11.40;99.90;;;;;;4956687;29;20180;-64
2021/10/12 09:51:56;;;;;;;2.15;0.65;;;11.40;99.90;;;;;;4956905;28;20200;-64
2021/10/12 09:54:23;;;;;;;0.30;0.20;;;11.20;99.90;;;;;;4956689;29;20720;-64
2021/10/12 09:56:50;;;;;;;0.30;0.20;;;11.30;93.40;;;;;;4956864;29;20222;-64
2021/10/12 09:59:17;;;;;;;0.30;0.20;;;11.50;99.90;;;;;;4956618;29;20181;-64
2021/10/12 10:01:46;;;;;;;0.30;0.20;;;11.50;1.00;;;;;;4956850;28;20192;-64
2021/10/12 10:04:17;;;;;;;0.30;0.10;;;11.40;99.90;;;;;;4956318;29;20208;-64
2021/10/12 10:06:44;;;;;;;0.30;0.20;;;11.40;99.90;;;;;;4956609;29;20638;-64
2021/10/12 10:09:12;;;;;;;0.40;0.32;;;11.70;99.90;;;;;;4956650;29;20271;-64
2021/10/12 10:11:38;;;;;;;0.30;0.15;;;11.60;92.40;;;;;;4956603;29;20645;-64
2021/10/12 10:14:09;;;;;;;0.30;0.20;;;11.60;1.00;;;;;;4956535;29;20587;-64
2021/10/12 10:16:37;;;;;;;1.30;0.85;;;11.50;1.00;;;;;;4956249;29;20717;-64
2021/10/12 10:19:06;;;;;;;0.30;0.20;;;11.60;99.90;;;;;;4955972;29;20610;-64
2021/10/12 10:21:37;;;;;;;0.30;0.10;;;11.70;99.90;;;;;;4956217;29;20203;-64
2021/10/12 10:26:40;;;;;;;0.30;0.20;;;12.10;99.90;;;;;;4956080;28;20183;-64
2021/10/12 10:29:18;;;;;;;0.47;0.20;;;11.90;1.00;;;;;;4955655;29;20199;-64
2021/10/12 10:31:46;;;;;;;0.30;0.20;;;11.70;99.90;;;;;;4956180;29;20180;-64
2021/10/12 10:34:32;;;;;;;1.83;0.65;;;11.70;1.00;;;;;;4956080;29;20184;-64
2021/10/12 10:37:15;;;;;;;0.30;0.20;;;12.00;99.90;;;;;;4956011;29;20330;-64
2021/10/12 10:39:46;;;;;;;0.93;0.93;;;12.00;1.00;;;;;;4955716;29;20181;-64
2021/10/12 10:42:27;;;;;;;0.30;0.20;;;11.80;1.00;;;;;;4956056;29;20725;-64
2021/10/12 10:45:01;;;;;;;0.82;0.35;;;11.90;1.00;;;;;;4955984;29;20216;-64
2021/10/12 10:47:45;;;;;;;0.30;0.20;;;12.10;99.90;;;;;;4955746;29;20171;-64
2021/10/12 10:50:10;;;;;;;0.40;0.30;;;11.90;1.00;;;;;;4956238;29;20181;-64
2021/10/12 10:52:44;;;;;;;0.30;0.20;;;12.10;99.90;;;;;;4956172;29;20210;-64
2021/10/12 10:55:10;;;;;;;0.30;0.20;;;12.30;99.90;;;;;;4956096;29;20188;-64
2021/10/12 10:57:37;;;;;;;0.30;0.10;;;12.00;1.00;;;;;;4956039;29;20194;-64
2021/10/12 11:00:12;;;;;;;0.50;0.50;;;12.10;88.00;;;;;;4955595;29;20199;-64
2021/10/12 11:02:37;;;;;;;0.30;0.20;;;12.20;99.90;;;;;;4955587;29;20172;-64
2021/10/12 11:05:03;;;;;;;0.80;0.43;;;12.20;1.00;;;;;;4955724;29;20212;-64
2021/10/12 11:07:29;;;;;;;0.30;0.20;;;12.30;1.00;;;;;;4955523;29;20207;-64
2021/10/12 11:09:57;;;;;;;3.77;0.60;;;12.50;1.00;;;;;;4955493;29;20208;-65
2021/10/12 11:12:24;;;;;;;0.40;0.20;;;12.70;99.90;;;;;;4955316;29;20176;-66
2021/10/12 11:14:51;;;;;;;4.18;0.85;;;12.80;99.90;;;;;;4955261;29;20718;-66
2021/10/12 11:17:17;;;;;;;0.70;0.70;;;12.40;1.00;;;;;;4955516;28;20543;-66
2021/10/12 11:20:06;;;;;;;0.70;0.30;;;12.50;99.90;;;;;;4955253;29;20191;-66
2021/10/12 11:22:31;;;;;;;0.50;0.50;;;12.30;12.10;;;;;;4955600;29;20431;-66
2021/10/12 11:25:00;;;;;;;0.30;0.20;;;12.10;89.50;;;;;;4955182;29;20289;-66
2021/10/12 11:27:26;;;;;;;0.40;0.30;;;12.20;1.00;;;;;;4955699;29;20199;-66
2021/10/12 11:30:08;;;;;;;0.30;0.20;;;12.50;99.90;;;;;;4955421;29;20246;-64
2021/10/12 11:32:34;;;;;;;0.45;0.30;;;12.70;99.90;;;;;;4955310;28;20238;-64
2021/10/12 11:35:05;;;;;;;0.30;0.20;;;12.60;99.90;;;;;;4955763;28;20223;-66
2021/10/12 11:37:30;;;;;;;0.30;0.20;;;12.60;1.00;;;;;;4955791;28;20199;-66
2021/10/12 11:40:15;;;;;;;0.60;0.30;;;12.30;1.00;;;;;;4959140;29;20185;-65
2021/10/12 11:42:45;;;;;;;0.40;0.20;;;12.00;1.00;;;;;;4959332;29;20493;-66
2021/10/12 11:45:11;;;;;;;0.30;0.20;;;11.90;79.30;;;;;;4959232;29;20650;-64
2021/10/12 11:47:37;;;;;;;0.30;0.10;;;12.00;1.00;;;;;;4959195;29;20189;-65
2021/10/12 11:50:14;;;;;;;1.77;0.52;;;12.30;1.00;;;;;;4958258;29;20449;-67
2021/10/12 11:52:41;;;;;;;0.30;0.20;;;12.50;1.00;;;;;;4958616;29;20180;-66
2021/10/12 11:55:09;;;;;;;0.40;0.20;;;12.70;1.00;;;;;;4960004;29;20242;-66
2021/10/12 11:57:36;;;;;;;0.40;0.30;;;13.00;1.00;;;;;;4960652;29;20187;-66
2021/10/12 12:00:03;;;;;;;2.63;2.42;;;13.40;1.00;;;;;;4960703;29;20293;-66
2021/10/12 12:02:30;;;;;;;0.30;0.20;;;13.00;99.90;;;;;;4959682;29;20654;-65
2021/10/12 12:05:00;;;;;;;0.32;0.20;;;13.10;99.90;;;;;;4957910;29;20212;-63
2021/10/12 12:07:33;;;;;;;0.30;0.20;;;13.00;1.00;;;;;;4959428;29;20191;-64
2021/10/12 12:09:59;;;;;;;0.30;0.10;;;13.10;1.00;;;;;;4959100;29;20182;-65
2021/10/12 12:12:24;;;;;;;0.30;0.17;;;12.90;99.90;;;;;;4959244;29;20211;-65
2021/10/12 12:14:54;;;;;;;0.30;0.20;;;12.90;87.20;;;;;;4959407;29;20232;-63
2021/10/12 12:17:20;;;;;;;0.35;0.20;;;13.30;23.10;;;;;;4942024;29;20440;-64
2021/10/12 12:19:51;;;;;;;0.40;0.20;;;13.60;86.30;;;;;;4959167;29;20176;-65
2021/10/12 12:22:31;;;;;;;0.30;0.20;;;13.70;1.00;;;;;;4957934;29;20638;-65
2021/10/12 12:25:21;;;;;;;1.63;1.00;;;13.50;1.00;;;;;;4958977;29;20563;-63
2021/10/12 12:27:58;;;;;;;0.80;0.68;;;13.20;1.00;;;;;;4960000;28;20326;-65
2021/10/12 12:30:33;;;;;;;0.77;0.35;;;13.10;1.00;;;;;;4957496;28;20184;-65
2021/10/12 12:33:00;;;;;;;0.77;0.50;;;13.30;1.00;;;;;;4958622;29;20285;-65
2021/10/12 12:35:26;;;;;;;0.40;0.20;;;13.30;1.00;;;;;;4959370;29;20195;-64
2021/10/12 12:38:10;;;;;;;1.25;0.70;;;13.20;1.00;;;;;;4959952;28;20190;-63
2021/10/12 12:40:39;;;;;;;0.40;0.30;;;13.10;1.00;;;;;;4958636;29;20194;-65
2021/10/12 12:43:16;;;;;;;0.30;0.10;;;13.40;1.00;;;;;;4959266;29;20227;-65
2021/10/12 12:45:42;;;;;;;0.30;0.20;;;13.40;1.00;;;;;;4958742;29;20195;-66
2021/10/12 12:48:07;;;;;;;1.07;0.97;;;13.20;1.00;;;;;;4958901;29;20184;-66
2021/10/12 12:50:36;;;;;;;0.30;0.17;;;13.50;1.00;;;;;;4958172;28;20188;-64
2021/10/12 12:53:06;;;;;;;0.40;0.20;;;13.50;1.00;;;;;;4958202;29;20267;-64
2021/10/12 12:55:36;;;;;;;0.50;0.40;;;13.80;1.00;;;;;;4958024;29;20204;-65
2021/10/12 12:58:03;;;;;;;0.40;0.20;;;14.00;1.00;;;;;;4957654;29;20573;-65
2021/10/12 13:00:29;;;;;;;0.40;0.20;;;13.80;47.90;;;;;;4957831;29;20184;-64
2021/10/12 13:02:56;;;;;;;0.40;0.20;;;13.80;1.00;;;;;;4957689;29;20652;-64
2021/10/12 13:05:24;;;;;;;0.40;0.30;;;13.50;99.90;;;;;;4957796;29;20187;-64
2021/10/12 13:07:50;;;;;;;0.40;0.20;;;13.30;1.00;;;;;;4958007;29;20195;-64